Gambrills, MD (21054)

5:46 PM EDT on September 18, 2014 (GMT -0400)
Crofton Walden | Change Station
CLOSE
Current Station
Personal Weather Station
Location: Crofton, MD
Elevation: 131 ft
Nearby Weather Stations
Active Advisory: Coastal Flood Advisory

Elev 131 ft 39.02 °N, 76.67 °W | Updated 1 second ago

Mostly Cloudy
Mostly Cloudy
68.2 °F
Feels Like 68.2 °F
N
1.0
Wind Variable Wind from East
Gusts 2.0 mph

Today
High -- | Low -- °F
--% Chance of Precip.
Yesterday
High -- | Low -- °F
Precip. -- in
6:50 AM 7:10 PM
Waning Crescent, 24% visible
Pressure 30.03 in
Visibility 10.0 miles
Clouds Mostly Cloudy 7500 ft
Overcast 8500 ft
Dew Point 66 °F
Humidity 94%
Rainfall 0.13 in
Snow Depth Not available.
UV 0 out of 12
Pollen 4.10 out of 12
Air Quality Not available.
Flu Activity Not available.
METAR KFME 182136Z AUTO 11006KT 10SM BKN075 OVC085 21/15 A3003 RMK AO1

More Conditions Fewer Conditions

Pressure 30.03 in
Visibility 10.0 miles
Clouds Mostly Cloudy 7500 ft
Overcast 8500 ft
Dew Point 66 °F
Humidity 94%
Rainfall 0.13 in
Snow Depth Not available.
UV 0 out of 12
Pollen 4.10 out of 12
Air Quality Not available.
Flu Activity Not available.
METAR KFME 182136Z AUTO 11006KT 10SM BKN075 OVC085 21/15 A3003 RMK AO1

More Conditions Fewer Conditions

10-Day Weather Forecast

Almanac

Astronomy

Sep. 18, 2014 Rise Set
Actual Time 6:50 AM EDT 7:10 PM EDT
Civil Twilight 6:23 AM EDT 7:36 PM EDT
Nautical Twilight 5:52 AM EDT 8:08 PM EDT
Astronomical Twilight 5:20 AM EDT 8:40 PM EDT
Moon 1:42 AM EDT 3:58 PM EDT
Length of Visible Light 13h 12m
Length of Day
12h 19m
Tomorrow will be 2m 31s shorter.
Waning Crescent, 24% of the Moon is Illuminated
Today
Waning Crescent
Sep 24
New
Oct 1
First Quarter
Oct 8
Full
Oct 15
Last Quarter

Today's Extremes

State Highs State Lows

Community

WunderPhotos

Upload Photos

1,754,452 photos uploaded!

WunderBlogs® & News

Nearby

Snow Depth

Station Depth Elevation
No new snow has been reported.

Earthquake Activity

City Distance Mag. Time & Date
No recent earthquake activity has been reported nearby.
Minimum magnitude displayed is 2.5.

Coastal Water Temperatures

Place Temperature
Cambridge, MD 73.9 °F
Tolchester Beach, MD 73.0 °F
Baltimore, MD 77.0 °F

Nearby Weather Stations